sensor_id;sensor_type;location;lat;lon;timestamp;temperature;humidity
5134;DHT22;2585;48.696;10.066;2022-08-19T00:01:33;17.90;93.60
5134;DHT22;2585;48.696;10.066;2022-08-19T00:04:07;17.90;93.60
5134;DHT22;2585;48.696;10.066;2022-08-19T00:06:36;17.90;93.60
5134;DHT22;2585;48.696;10.066;2022-08-19T00:09:05;17.90;93.60
5134;DHT22;2585;48.696;10.066;2022-08-19T00:11:33;17.90;93.60
5134;DHT22;2585;48.696;10.066;2022-08-19T00:14:09;17.90;93.60
5134;DHT22;2585;48.696;10.066;2022-08-19T00:16:37;17.90;93.50
5134;DHT22;2585;48.696;10.066;2022-08-19T00:19:06;17.90;93.50
5134;DHT22;2585;48.696;10.066;2022-08-19T00:21:33;18.00;93.60
5134;DHT22;2585;48.696;10.066;2022-08-19T00:24:08;17.90;93.50
5134;DHT22;2585;48.696;10.066;2022-08-19T00:26:36;17.90;93.50
5134;DHT22;2585;48.696;10.066;2022-08-19T00:29:05;18.00;93.60
5134;DHT22;2585;48.696;10.066;2022-08-19T00:31:32;18.00;93.60
5134;DHT22;2585;48.696;10.066;2022-08-19T00:33:59;18.00;93.70
5134;DHT22;2585;48.696;10.066;2022-08-19T00:36:26;18.00;93.70
5134;DHT22;2585;48.696;10.066;2022-08-19T00:38:53;18.00;93.70
5134;DHT22;2585;48.696;10.066;2022-08-19T00:41:21;18.00;93.60
5134;DHT22;2585;48.696;10.066;2022-08-19T00:44:13;17.90;93.60
5134;DHT22;2585;48.696;10.066;2022-08-19T00:46:43;17.80;93.60
5134;DHT22;2585;48.696;10.066;2022-08-19T00:52:00;17.70;93.60
5134;DHT22;2585;48.696;10.066;2022-08-19T00:54:27;17.70;93.60
5134;DHT22;2585;48.696;10.066;2022-08-19T00:56:58;17.70;93.70
5134;DHT22;2585;48.696;10.066;2022-08-19T00:59:27;17.60;93.60
5134;DHT22;2585;48.696;10.066;2022-08-19T01:02:15;17.60;93.60
5134;DHT22;2585;48.696;10.066;2022-08-19T01:04:42;17.50;93.70
5134;DHT22;2585;48.696;10.066;2022-08-19T01:07:09;17.60;93.70
5134;DHT22;2585;48.696;10.066;2022-08-19T01:09:42;17.60;93.70
5134;DHT22;2585;48.696;10.066;2022-08-19T01:12:09;17.50;93.70
5134;DHT22;2585;48.696;10.066;2022-08-19T01:14:39;17.50;93.70
5134;DHT22;2585;48.696;10.066;2022-08-19T01:17:09;17.60;93.70
5134;DHT22;2585;48.696;10.066;2022-08-19T01:19:41;17.60;93.70
5134;DHT22;2585;48.696;10.066;2022-08-19T01:22:18;17.60;93.70
5134;DHT22;2585;48.696;10.066;2022-08-19T01:24:56;17.60;93.70
5134;DHT22;2585;48.696;10.066;2022-08-19T01:27:25;17.60;93.70
5134;DHT22;2585;48.696;10.066;2022-08-19T01:29:55;17.60;93.70
5134;DHT22;2585;48.696;10.066;2022-08-19T01:32:22;17.50;93.70
5134;DHT22;2585;48.696;10.066;2022-08-19T01:35:00;17.50;93.60
5134;DHT22;2585;48.696;10.066;2022-08-19T01:37:28;17.50;93.60
5134;DHT22;2585;48.696;10.066;2022-08-19T01:39:57;17.60;93.70
5134;DHT22;2585;48.696;10.066;2022-08-19T01:42:24;17.60;93.70
5134;DHT22;2585;48.696;10.066;2022-08-19T01:44:56;17.60;93.70
5134;DHT22;2585;48.696;10.066;2022-08-19T01:47:23;17.60;93.60
5134;DHT22;2585;48.696;10.066;2022-08-19T01:49:50;17.50;93.60
5134;DHT22;2585;48.696;10.066;2022-08-19T01:52:16;17.60;93.70
5134;DHT22;2585;48.696;10.066;2022-08-19T01:54:43;17.60;93.70
5134;DHT22;2585;48.696;10.066;2022-08-19T01:57:12;17.50;93.70
5134;DHT22;2585;48.696;10.066;2022-08-19T01:59:41;17.60;93.70
5134;DHT22;2585;48.696;10.066;2022-08-19T02:02:09;17.60;93.80
5134;DHT22;2585;48.696;10.066;2022-08-19T02:04:36;17.60;93.80
5134;DHT22;2585;48.696;10.066;2022-08-19T02:07:07;17.60;93.80
5134;DHT22;2585;48.696;10.066;2022-08-19T02:09:35;17.50;93.80
5134;DHT22;2585;48.696;10.066;2022-08-19T02:12:02;17.50;93.80
5134;DHT22;2585;48.696;10.066;2022-08-19T02:14:29;17.50;93.80
5134;DHT22;2585;48.696;10.066;2022-08-19T02:16:56;17.40;93.70
5134;DHT22;2585;48.696;10.066;2022-08-19T02:19:23;17.40;93.70
5134;DHT22;2585;48.696;10.066;2022-08-19T02:21:49;17.30;93.70
5134;DHT22;2585;48.696;10.066;2022-08-19T02:24:16;17.30;93.70
5134;DHT22;2585;48.696;10.066;2022-08-19T02:26:43;17.30;93.70
5134;DHT22;2585;48.696;10.066;2022-08-19T02:29:10;17.40;93.80
5134;DHT22;2585;48.696;10.066;2022-08-19T02:31:37;17.50;93.80
5134;DHT22;2585;48.696;10.066;2022-08-19T02:34:04;17.40;93.70
5134;DHT22;2585;48.696;10.066;2022-08-19T02:36:30;17.50;93.80
5134;DHT22;2585;48.696;10.066;2022-08-19T02:38:57;17.50;93.80
5134;DHT22;2585;48.696;10.066;2022-08-19T02:41:31;17.50;93.80
5134;DHT22;2585;48.696;10.066;2022-08-19T02:44:00;17.50;93.80
5134;DHT22;2585;48.696;10.066;2022-08-19T02:46:48;17.50;93.80
5134;DHT22;2585;48.696;10.066;2022-08-19T02:49:18;17.50;93.80
5134;DHT22;2585;48.696;10.066;2022-08-19T02:51:45;17.50;93.80
5134;DHT22;2585;48.696;10.066;2022-08-19T02:54:14;17.50;93.80
5134;DHT22;2585;48.696;10.066;2022-08-19T02:56:42;17.50;93.80
5134;DHT22;2585;48.696;10.066;2022-08-19T02:59:09;17.40;93.80
5134;DHT22;2585;48.696;10.066;2022-08-19T03:01:40;17.50;93.80
5134;DHT22;2585;48.696;10.066;2022-08-19T03:04:12;17.40;93.80
5134;DHT22;2585;48.696;10.066;2022-08-19T03:06:44;17.40;93.80
5134;DHT22;2585;48.696;10.066;2022-08-19T03:09:12;17.40;93.80
5134;DHT22;2585;48.696;10.066;2022-08-19T03:11:39;17.20;93.70
5134;DHT22;2585;48.696;10.066;2022-08-19T03:14:08;17.20;93.70
5134;DHT22;2585;48.696;10.066;2022-08-19T03:16:44;17.20;93.70
5134;DHT22;2585;48.696;10.066;2022-08-19T03:19:11;17.10;93.70
5134;DHT22;2585;48.696;10.066;2022-08-19T03:21:38;17.10;93.70
5134;DHT22;2585;48.696;10.066;2022-08-19T03:24:08;17.00;93.70
5134;DHT22;2585;48.696;10.066;2022-08-19T03:26:39;17.00;93.70
5134;DHT22;2585;48.696;10.066;2022-08-19T03:29:07;17.00;93.70
5134;DHT22;2585;48.696;10.066;2022-08-19T03:31:38;17.00;93.70
5134;DHT22;2585;48.696;10.066;2022-08-19T03:34:24;17.10;93.80
5134;DHT22;2585;48.696;10.066;2022-08-19T03:36:55;17.10;93.80
5134;DHT22;2585;48.696;10.066;2022-08-19T03:39:24;17.00;93.70
5134;DHT22;2585;48.696;10.066;2022-08-19T03:41:52;17.00;93.70
5134;DHT22;2585;48.696;10.066;2022-08-19T03:44:39;17.00;93.70
5134;DHT22;2585;48.696;10.066;2022-08-19T03:47:08;17.00;93.70
5134;DHT22;2585;48.696;10.066;2022-08-19T03:49:35;17.00;93.70
5134;DHT22;2585;48.696;10.066;2022-08-19T03:52:02;17.10;93.80
5134;DHT22;2585;48.696;10.066;2022-08-19T03:54:34;17.00;93.70
5134;DHT22;2585;48.696;10.066;2022-08-19T03:57:00;17.10;93.80
5134;DHT22;2585;48.696;10.066;2022-08-19T03:59:30;17.10;93.80
5134;DHT22;2585;48.696;10.066;2022-08-19T04:02:00;17.20;93.80
5134;DHT22;2585;48.696;10.066;2022-08-19T04:04:27;17.20;93.80
5134;DHT22;2585;48.696;10.066;2022-08-19T04:06:56;17.10;93.80
5134;DHT22;2585;48.696;10.066;2022-08-19T04:09:23;17.20;93.80
5134;DHT22;2585;48.696;10.066;2022-08-19T04:11:52;17.10;93.70
5134;DHT22;2585;48.696;10.066;2022-08-19T04:14:25;17.00;93.70
5134;DHT22;2585;48.696;10.066;2022-08-19T04:16:52;17.00;93.70
5134;DHT22;2585;48.696;10.066;2022-08-19T04:19:19;16.90;93.70
5134;DHT22;2585;48.696;10.066;2022-08-19T04:21:48;17.00;93.70
5134;DHT22;2585;48.696;10.066;2022-08-19T04:24:16;16.90;93.70
5134;DHT22;2585;48.696;10.066;2022-08-19T04:26:46;17.00;93.70
5134;DHT22;2585;48.696;10.066;2022-08-19T04:29:22;16.90;93.70
5134;DHT22;2585;48.696;10.066;2022-08-19T04:31:52;16.90;93.70
5134;DHT22;2585;48.696;10.066;2022-08-19T04:34:22;16.90;93.70
5134;DHT22;2585;48.696;10.066;2022-08-19T04:36:51;16.90;93.70
5134;DHT22;2585;48.696;10.066;2022-08-19T04:39:22;17.00;93.80
5134;DHT22;2585;48.696;10.066;2022-08-19T04:41:50;17.00;93.80
5134;DHT22;2585;48.696;10.066;2022-08-19T04:44:36;17.00;93.80
5134;DHT22;2585;48.696;10.066;2022-08-19T04:47:12;17.00;93.80
5134;DHT22;2585;48.696;10.066;2022-08-19T04:49:38;17.10;93.80
5134;DHT22;2585;48.696;10.066;2022-08-19T04:52:05;17.00;93.70
5134;DHT22;2585;48.696;10.066;2022-08-19T04:54:32;17.00;93.70
5134;DHT22;2585;48.696;10.066;2022-08-19T04:57:07;17.20;93.80
5134;DHT22;2585;48.696;10.066;2022-08-19T04:59:36;17.00;93.70
5134;DHT22;2585;48.696;10.066;2022-08-19T05:02:04;17.10;93.80
5134;DHT22;2585;48.696;10.066;2022-08-19T05:04:31;17.20;93.80
5134;DHT22;2585;48.696;10.066;2022-08-19T05:06:59;17.20;93.80
5134;DHT22;2585;48.696;10.066;2022-08-19T05:09:29;17.20;93.80
5134;DHT22;2585;48.696;10.066;2022-08-19T05:12:17;17.20;93.80
5134;DHT22;2585;48.696;10.066;2022-08-19T05:14:44;17.20;93.80
5134;DHT22;2585;48.696;10.066;2022-08-19T05:17:14;17.20;93.80
5134;DHT22;2585;48.696;10.066;2022-08-19T05:20:04;17.20;93.80
5134;DHT22;2585;48.696;10.066;2022-08-19T05:22:49;17.30;93.80
5134;DHT22;2585;48.696;10.066;2022-08-19T05:25:18;17.30;93.80
5134;DHT22;2585;48.696;10.066;2022-08-19T05:27:46;17.30;93.80
5134;DHT22;2585;48.696;10.066;2022-08-19T05:30:13;17.30;93.80
5134;DHT22;2585;48.696;10.066;2022-08-19T05:32:42;17.30;93.80
5134;DHT22;2585;48.696;10.066;2022-08-19T05:35:09;17.30;93.80
5134;DHT22;2585;48.696;10.066;2022-08-19T05:37:37;17.30;93.80
5134;DHT22;2585;48.696;10.066;2022-08-19T05:40:08;17.30;93.80
5134;DHT22;2585;48.696;10.066;2022-08-19T05:42:35;17.30;93.80
5134;DHT22;2585;48.696;10.066;2022-08-19T05:45:02;17.20;93.80
5134;DHT22;2585;48.696;10.066;2022-08-19T05:47:30;17.30;93.80
5134;DHT22;2585;48.696;10.066;2022-08-19T05:49:57;17.30;93.80
5134;DHT22;2585;48.696;10.066;2022-08-19T05:52:23;17.40;93.90
5134;DHT22;2585;48.696;10.066;2022-08-19T05:54:52;17.40;93.90
5134;DHT22;2585;48.696;10.066;2022-08-19T05:57:23;17.40;93.90
5134;DHT22;2585;48.696;10.066;2022-08-19T05:59:50;17.40;93.90
5134;DHT22;2585;48.696;10.066;2022-08-19T06:02:25;17.50;93.90
5134;DHT22;2585;48.696;10.066;2022-08-19T06:04:52;17.50;93.90
5134;DHT22;2585;48.696;10.066;2022-08-19T06:07:19;17.40;93.90
5134;DHT22;2585;48.696;10.066;2022-08-19T06:09:46;17.30;93.80
5134;DHT22;2585;48.696;10.066;2022-08-19T06:12:29;17.30;93.80
5134;DHT22;2585;48.696;10.066;2022-08-19T06:15:01;17.30;93.80
5134;DHT22;2585;48.696;10.066;2022-08-19T06:17:29;17.20;93.80
5134;DHT22;2585;48.696;10.066;2022-08-19T06:19:57;17.30;93.80
5134;DHT22;2585;48.696;10.066;2022-08-19T06:22:25;17.20;93.80
5134;DHT22;2585;48.696;10.066;2022-08-19T06:24:52;17.30;93.80
5134;DHT22;2585;48.696;10.066;2022-08-19T06:27:21;17.20;93.80
5134;DHT22;2585;48.696;10.066;2022-08-19T06:29:48;17.20;93.80
5134;DHT22;2585;48.696;10.066;2022-08-19T06:32:16;17.20;93.80
5134;DHT22;2585;48.696;10.066;2022-08-19T06:34:44;17.30;93.90
5134;DHT22;2585;48.696;10.066;2022-08-19T06:37:11;17.30;93.90
5134;DHT22;2585;48.696;10.066;2022-08-19T06:39:40;17.30;93.80
5134;DHT22;2585;48.696;10.066;2022-08-19T06:42:08;17.30;93.80
5134;DHT22;2585;48.696;10.066;2022-08-19T06:44:40;17.30;93.80
5134;DHT22;2585;48.696;10.066;2022-08-19T06:47:15;17.20;93.80
5134;DHT22;2585;48.696;10.066;2022-08-19T06:49:56;17.30;93.80
5134;DHT22;2585;48.696;10.066;2022-08-19T06:52:33;17.30;93.80
5134;DHT22;2585;48.696;10.066;2022-08-19T06:55:03;17.20;93.80
5134;DHT22;2585;48.696;10.066;2022-08-19T06:57:32;17.20;93.80
5134;DHT22;2585;48.696;10.066;2022-08-19T07:00:00;17.20;93.80
5134;DHT22;2585;48.696;10.066;2022-08-19T07:02:26;17.10;93.80
5134;DHT22;2585;48.696;10.066;2022-08-19T07:04:53;17.10;93.80
5134;DHT22;2585;48.696;10.066;2022-08-19T07:07:21;17.00;93.80
5134;DHT22;2585;48.696;10.066;2022-08-19T07:09:51;17.00;93.80
5134;DHT22;2585;48.696;10.066;2022-08-19T07:12:29;17.00;93.80
5134;DHT22;2585;48.696;10.066;2022-08-19T07:15:03;17.00;93.80
5134;DHT22;2585;48.696;10.066;2022-08-19T07:17:30;17.00;93.80
5134;DHT22;2585;48.696;10.066;2022-08-19T07:20:00;17.00;93.80
5134;DHT22;2585;48.696;10.066;2022-08-19T07:22:33;17.00;93.80
5134;DHT22;2585;48.696;10.066;2022-08-19T07:25:01;17.10;93.80
5134;DHT22;2585;48.696;10.066;2022-08-19T07:27:30;17.10;93.80
5134;DHT22;2585;48.696;10.066;2022-08-19T07:29:59;17.10;93.80
5134;DHT22;2585;48.696;10.066;2022-08-19T07:32:26;17.10;93.80
5134;DHT22;2585;48.696;10.066;2022-08-19T07:34:54;17.20;93.90
5134;DHT22;2585;48.696;10.066;2022-08-19T07:37:23;17.20;93.90
5134;DHT22;2585;48.696;10.066;2022-08-19T07:39:58;17.20;93.90
5134;DHT22;2585;48.696;10.066;2022-08-19T07:42:26;17.20;93.90
5134;DHT22;2585;48.696;10.066;2022-08-19T07:44:53;17.10;93.80
5134;DHT22;2585;48.696;10.066;2022-08-19T07:47:20;17.20;93.90
5134;DHT22;2585;48.696;10.066;2022-08-19T07:50:10;17.10;93.80
5134;DHT22;2585;48.696;10.066;2022-08-19T07:52:38;17.20;93.90
5134;DHT22;2585;48.696;10.066;2022-08-19T07:55:08;17.20;93.90
5134;DHT22;2585;48.696;10.066;2022-08-19T07:57:55;17.20;93.90
5134;DHT22;2585;48.696;10.066;2022-08-19T08:00:22;17.20;93.90
5134;DHT22;2585;48.696;10.066;2022-08-19T08:02:51;17.20;93.90
5134;DHT22;2585;48.696;10.066;2022-08-19T08:05:22;17.20;93.90
5134;DHT22;2585;48.696;10.066;2022-08-19T08:08:10;17.30;93.90
5134;DHT22;2585;48.696;10.066;2022-08-19T08:10:56;17.30;93.90
5134;DHT22;2585;48.696;10.066;2022-08-19T08:13:24;17.40;93.90
5134;DHT22;2585;48.696;10.066;2022-08-19T08:15:52;17.40;93.90
5134;DHT22;2585;48.696;10.066;2022-08-19T08:18:22;17.40;93.90
5134;DHT22;2585;48.696;10.066;2022-08-19T08:20:56;17.30;93.90
5134;DHT22;2585;48.696;10.066;2022-08-19T08:23:24;17.40;93.90
5134;DHT22;2585;48.696;10.066;2022-08-19T08:25:57;17.50;93.90
5134;DHT22;2585;48.696;10.066;2022-08-19T08:28:26;17.50;93.90
5134;DHT22;2585;48.696;10.066;2022-08-19T08:30:57;17.50;93.90
5134;DHT22;2585;48.696;10.066;2022-08-19T08:33:25;17.60;93.90
5134;DHT22;2585;48.696;10.066;2022-08-19T08:36:05;17.70;94.00
5134;DHT22;2585;48.696;10.066;2022-08-19T08:38:32;17.70;94.00
5134;DHT22;2585;48.696;10.066;2022-08-19T08:41:28;17.80;94.00
5134;DHT22;2585;48.696;10.066;2022-08-19T08:43:57;17.80;94.00
5134;DHT22;2585;48.696;10.066;2022-08-19T08:46:36;17.80;94.00
5134;DHT22;2585;48.696;10.066;2022-08-19T08:51:40;18.00;94.00
5134;DHT22;2585;48.696;10.066;2022-08-19T08:54:19;18.10;94.00
5134;DHT22;2585;48.696;10.066;2022-08-19T08:56:49;18.00;94.00
5134;DHT22;2585;48.696;10.066;2022-08-19T08:59:38;18.00;94.00
5134;DHT22;2585;48.696;10.066;2022-08-19T09:02:05;17.90;94.00
5134;DHT22;2585;48.696;10.066;2022-08-19T09:04:34;17.90;94.00
5134;DHT22;2585;48.696;10.066;2022-08-19T09:07:18;17.90;94.00
5134;DHT22;2585;48.696;10.066;2022-08-19T09:10:14;18.00;94.00
5134;DHT22;2585;48.696;10.066;2022-08-19T09:16:14;17.80;93.90
5134;DHT22;2585;48.696;10.066;2022-08-19T09:18:51;17.80;94.00
5134;DHT22;2585;48.696;10.066;2022-08-19T09:21:22;17.80;94.00
5134;DHT22;2585;48.696;10.066;2022-08-19T09:23:59;17.70;93.90
5134;DHT22;2585;48.696;10.066;2022-08-19T09:26:29;17.70;93.90
5134;DHT22;2585;48.696;10.066;2022-08-19T09:29:14;17.70;93.90
5134;DHT22;2585;48.696;10.066;2022-08-19T09:31:43;17.70;93.90
5134;DHT22;2585;48.696;10.066;2022-08-19T09:34:10;17.70;93.90
5134;DHT22;2585;48.696;10.066;2022-08-19T09:36:47;17.80;94.00
5134;DHT22;2585;48.696;10.066;2022-08-19T09:39:20;17.90;94.00
5134;DHT22;2585;48.696;10.066;2022-08-19T09:41:47;17.90;94.00
5134;DHT22;2585;48.696;10.066;2022-08-19T09:44:17;18.00;94.00
5134;DHT22;2585;48.696;10.066;2022-08-19T09:46:44;17.90;94.00
5134;DHT22;2585;48.696;10.066;2022-08-19T09:49:15;18.00;94.00
5134;DHT22;2585;48.696;10.066;2022-08-19T09:51:44;17.90;94.00
5134;DHT22;2585;48.696;10.066;2022-08-19T09:54:17;17.90;94.00
5134;DHT22;2585;48.696;10.066;2022-08-19T09:56:51;17.80;94.00
5134;DHT22;2585;48.696;10.066;2022-08-19T09:59:18;17.80;93.90
5134;DHT22;2585;48.696;10.066;2022-08-19T10:01:45;17.80;93.90
5134;DHT22;2585;48.696;10.066;2022-08-19T10:04:12;17.80;94.00
5134;DHT22;2585;48.696;10.066;2022-08-19T10:06:46;17.80;94.00
5134;DHT22;2585;48.696;10.066;2022-08-19T10:09:19;17.90;94.00
5134;DHT22;2585;48.696;10.066;2022-08-19T10:12:00;18.10;94.10
5134;DHT22;2585;48.696;10.066;2022-08-19T10:14:28;18.10;94.10
5134;DHT22;2585;48.696;10.066;2022-08-19T10:16:55;18.10;94.00
5134;DHT22;2585;48.696;10.066;2022-08-19T10:19:24;18.10;94.00
5134;DHT22;2585;48.696;10.066;2022-08-19T10:21:53;18.10;94.00
5134;DHT22;2585;48.696;10.066;2022-08-19T10:24:26;18.00;94.00
5134;DHT22;2585;48.696;10.066;2022-08-19T10:26:54;17.90;94.00
5134;DHT22;2585;48.696;10.066;2022-08-19T10:29:26;17.80;93.90
5134;DHT22;2585;48.696;10.066;2022-08-19T10:31:59;17.70;93.90
5134;DHT22;2585;48.696;10.066;2022-08-19T10:34:29;17.70;93.90
5134;DHT22;2585;48.696;10.066;2022-08-19T10:36:57;17.60;93.90
5134;DHT22;2585;48.696;10.066;2022-08-19T10:39:29;17.60;93.90
5134;DHT22;2585;48.696;10.066;2022-08-19T10:42:06;17.80;94.00
5134;DHT22;2585;48.696;10.066;2022-08-19T10:44:33;17.80;94.00
5134;DHT22;2585;48.696;10.066;2022-08-19T10:47:03;17.70;94.00
5134;DHT22;2585;48.696;10.066;2022-08-19T10:49:43;17.80;94.00
5134;DHT22;2585;48.696;10.066;2022-08-19T10:52:28;17.80;94.00
5134;DHT22;2585;48.696;10.066;2022-08-19T10:55:06;17.90;94.00
5134;DHT22;2585;48.696;10.066;2022-08-19T10:57:59;17.90;94.00
5134;DHT22;2585;48.696;10.066;2022-08-19T11:00:28;17.90;94.00
5134;DHT22;2585;48.696;10.066;2022-08-19T11:02:57;17.80;94.00
5134;DHT22;2585;48.696;10.066;2022-08-19T11:05:24;17.80;94.00
5134;DHT22;2585;48.696;10.066;2022-08-19T11:07:50;18.00;94.00
5134;DHT22;2585;48.696;10.066;2022-08-19T11:10:18;18.10;94.10
5134;DHT22;2585;48.696;10.066;2022-08-19T11:12:47;18.10;94.10
5134;DHT22;2585;48.696;10.066;2022-08-19T11:15:15;18.10;94.10
5134;DHT22;2585;48.696;10.066;2022-08-19T11:17:43;18.30;94.10
5134;DHT22;2585;48.696;10.066;2022-08-19T11:20:12;18.30;94.10
5134;DHT22;2585;48.696;10.066;2022-08-19T11:22:40;18.40;94.10
5134;DHT22;2585;48.696;10.066;2022-08-19T11:25:09;18.40;94.10
5134;DHT22;2585;48.696;10.066;2022-08-19T11:27:38;18.50;94.20
5134;DHT22;2585;48.696;10.066;2022-08-19T11:30:06;18.40;94.10
5134;DHT22;2585;48.696;10.066;2022-08-19T11:32:39;18.50;94.10
5134;DHT22;2585;48.696;10.066;2022-08-19T11:35:12;18.50;94.10
5134;DHT22;2585;48.696;10.066;2022-08-19T11:37:40;18.40;94.10
5134;DHT22;2585;48.696;10.066;2022-08-19T11:40:07;18.30;94.10
5134;DHT22;2585;48.696;10.066;2022-08-19T11:42:34;18.10;94.00
5134;DHT22;2585;48.696;10.066;2022-08-19T11:45:20;18.10;94.00
5134;DHT22;2585;48.696;10.066;2022-08-19T11:47:47;18.00;94.00
5134;DHT22;2585;48.696;10.066;2022-08-19T11:50:16;18.10;94.10
5134;DHT22;2585;48.696;10.066;2022-08-19T11:52:43;18.10;94.10
5134;DHT22;2585;48.696;10.066;2022-08-19T11:55:13;18.10;94.10
5134;DHT22;2585;48.696;10.066;2022-08-19T11:57:41;18.10;94.00
5134;DHT22;2585;48.696;10.066;2022-08-19T12:00:10;18.10;94.00
5134;DHT22;2585;48.696;10.066;2022-08-19T12:02:39;18.10;94.10
5134;DHT22;2585;48.696;10.066;2022-08-19T12:05:06;18.20;94.10
5134;DHT22;2585;48.696;10.066;2022-08-19T12:07:38;18.30;94.10
5134;DHT22;2585;48.696;10.066;2022-08-19T12:10:06;18.10;94.10
5134;DHT22;2585;48.696;10.066;2022-08-19T12:12:33;18.00;94.00
5134;DHT22;2585;48.696;10.066;2022-08-19T12:15:00;18.00;94.00
5134;DHT22;2585;48.696;10.066;2022-08-19T12:17:28;17.90;94.00
5134;DHT22;2585;48.696;10.066;2022-08-19T12:19:57;17.90;94.00
5134;DHT22;2585;48.696;10.066;2022-08-19T12:22:24;17.80;94.00
5134;DHT22;2585;48.696;10.066;2022-08-19T12:24:50;17.80;94.00
5134;DHT22;2585;48.696;10.066;2022-08-19T12:27:19;17.80;94.00
5134;DHT22;2585;48.696;10.066;2022-08-19T12:30:09;17.80;94.00
5134;DHT22;2585;48.696;10.066;2022-08-19T12:32:36;18.00;94.10
5134;DHT22;2585;48.696;10.066;2022-08-19T12:35:04;18.00;94.10
5134;DHT22;2585;48.696;10.066;2022-08-19T12:37:31;18.00;94.10
5134;DHT22;2585;48.696;10.066;2022-08-19T12:39:59;18.00;94.10
5134;DHT22;2585;48.696;10.066;2022-08-19T12:42:26;18.00;94.10
5134;DHT22;2585;48.696;10.066;2022-08-19T12:44:53;17.90;94.00
5134;DHT22;2585;48.696;10.066;2022-08-19T12:47:20;17.90;94.00
5134;DHT22;2585;48.696;10.066;2022-08-19T12:49:48;17.80;94.00
5134;DHT22;2585;48.696;10.066;2022-08-19T12:52:23;17.90;94.00
5134;DHT22;2585;48.696;10.066;2022-08-19T12:54:51;17.80;94.00
5134;DHT22;2585;48.696;10.066;2022-08-19T12:57:22;17.80;94.00
5134;DHT22;2585;48.696;10.066;2022-08-19T12:59:58;17.80;94.00
5134;DHT22;2585;48.696;10.066;2022-08-19T13:02:25;17.80;94.00
5134;DHT22;2585;48.696;10.066;2022-08-19T13:04:52;17.80;94.00
5134;DHT22;2585;48.696;10.066;2022-08-19T13:07:19;17.80;94.00
5134;DHT22;2585;48.696;10.066;2022-08-19T13:09:45;17.70;94.00
5134;DHT22;2585;48.696;10.066;2022-08-19T13:12:12;17.80;94.00
5134;DHT22;2585;48.696;10.066;2022-08-19T13:14:40;17.80;94.00
5134;DHT22;2585;48.696;10.066;2022-08-19T13:17:07;17.80;94.00
5134;DHT22;2585;48.696;10.066;2022-08-19T13:19:36;17.80;94.00
5134;DHT22;2585;48.696;10.066;2022-08-19T13:22:03;17.80;94.00
5134;DHT22;2585;48.696;10.066;2022-08-19T13:24:40;17.80;94.00
5134;DHT22;2585;48.696;10.066;2022-08-19T13:27:12;17.80;94.00
5134;DHT22;2585;48.696;10.066;2022-08-19T13:29:40;17.80;94.00
5134;DHT22;2585;48.696;10.066;2022-08-19T13:32:26;17.80;94.00
5134;DHT22;2585;48.696;10.066;2022-08-19T13:35:11;17.80;94.00
5134;DHT22;2585;48.696;10.066;2022-08-19T13:37:43;17.70;94.00
5134;DHT22;2585;48.696;10.066;2022-08-19T13:40:18;17.70;94.00
5134;DHT22;2585;48.696;10.066;2022-08-19T13:42:48;17.60;94.00
5134;DHT22;2585;48.696;10.066;2022-08-19T13:45:17;17.60;94.00
5134;DHT22;2585;48.696;10.066;2022-08-19T13:47:47;17.50;94.00
5134;DHT22;2585;48.696;10.066;2022-08-19T13:50:21;17.40;93.90
5134;DHT22;2585;48.696;10.066;2022-08-19T13:52:48;17.40;93.90
5134;DHT22;2585;48.696;10.066;2022-08-19T13:55:15;17.30;93.90
5134;DHT22;2585;48.696;10.066;2022-08-19T13:57:56;17.20;93.90
5134;DHT22;2585;48.696;10.066;2022-08-19T14:00:25;17.20;93.90
5134;DHT22;2585;48.696;10.066;2022-08-19T14:02:54;17.10;93.90
5134;DHT22;2585;48.696;10.066;2022-08-19T14:05:25;17.00;93.80
5134;DHT22;2585;48.696;10.066;2022-08-19T14:07:52;16.90;93.80
5134;DHT22;2585;48.696;10.066;2022-08-19T14:10:20;17.00;93.80
5134;DHT22;2585;48.696;10.066;2022-08-19T14:12:47;16.90;93.80
5134;DHT22;2585;48.696;10.066;2022-08-19T14:15:15;16.90;93.80
5134;DHT22;2585;48.696;10.066;2022-08-19T14:17:43;16.90;93.80
5134;DHT22;2585;48.696;10.066;2022-08-19T14:20:12;16.90;93.80
5134;DHT22;2585;48.696;10.066;2022-08-19T14:22:45;16.90;93.80
5134;DHT22;2585;48.696;10.066;2022-08-19T14:25:15;16.90;93.80
5134;DHT22;2585;48.696;10.066;2022-08-19T14:27:42;16.90;93.80
5134;DHT22;2585;48.696;10.066;2022-08-19T14:30:11;16.90;93.80
5134;DHT22;2585;48.696;10.066;2022-08-19T14:32:38;16.90;93.80
5134;DHT22;2585;48.696;10.066;2022-08-19T14:35:06;16.90;93.80
5134;DHT22;2585;48.696;10.066;2022-08-19T14:37:34;16.90;93.80
5134;DHT22;2585;48.696;10.066;2022-08-19T14:40:12;16.90;93.80
5134;DHT22;2585;48.696;10.066;2022-08-19T14:42:39;16.90;93.80
5134;DHT22;2585;48.696;10.066;2022-08-19T14:45:08;17.00;93.90
5134;DHT22;2585;48.696;10.066;2022-08-19T14:47:35;17.00;93.90
5134;DHT22;2585;48.696;10.066;2022-08-19T14:50:08;17.10;93.90
5134;DHT22;2585;48.696;10.066;2022-08-19T14:52:44;17.20;93.90
5134;DHT22;2585;48.696;10.066;2022-08-19T14:55:11;17.20;93.90
5134;DHT22;2585;48.696;10.066;2022-08-19T14:57:40;17.10;93.90
5134;DHT22;2585;48.696;10.066;2022-08-19T15:00:08;17.20;93.90
5134;DHT22;2585;48.696;10.066;2022-08-19T15:02:40;17.30;93.90
5134;DHT22;2585;48.696;10.066;2022-08-19T15:05:07;17.30;93.90
5134;DHT22;2585;48.696;10.066;2022-08-19T15:07:34;17.30;93.90
5134;DHT22;2585;48.696;10.066;2022-08-19T15:10:01;17.30;93.90
5134;DHT22;2585;48.696;10.066;2022-08-19T15:12:29;17.30;93.90
5134;DHT22;2585;48.696;10.066;2022-08-19T15:14:56;17.30;93.90
5134;DHT22;2585;48.696;10.066;2022-08-19T15:17:23;17.30;93.90
5134;DHT22;2585;48.696;10.066;2022-08-19T15:20:13;17.30;93.90
5134;DHT22;2585;48.696;10.066;2022-08-19T15:22:40;17.30;93.90
5134;DHT22;2585;48.696;10.066;2022-08-19T15:25:10;17.40;94.00
5134;DHT22;2585;48.696;10.066;2022-08-19T15:27:38;17.40;94.00
5134;DHT22;2585;48.696;10.066;2022-08-19T15:30:10;17.40;94.00
5134;DHT22;2585;48.696;10.066;2022-08-19T15:32:38;17.40;94.00
5134;DHT22;2585;48.696;10.066;2022-08-19T15:35:06;17.50;94.00
5134;DHT22;2585;48.696;10.066;2022-08-19T15:37:34;17.50;94.00
5134;DHT22;2585;48.696;10.066;2022-08-19T15:40:05;17.50;94.00
5134;DHT22;2585;48.696;10.066;2022-08-19T15:42:34;17.40;93.90
5134;DHT22;2585;48.696;10.066;2022-08-19T15:45:03;17.50;94.00
5134;DHT22;2585;48.696;10.066;2022-08-19T15:47:30;17.50;94.00
5134;DHT22;2585;48.696;10.066;2022-08-19T15:50:14;17.50;94.00
5134;DHT22;2585;48.696;10.066;2022-08-19T15:52:55;17.50;94.00
5134;DHT22;2585;48.696;10.066;2022-08-19T15:55:25;17.50;94.00
5134;DHT22;2585;48.696;10.066;2022-08-19T15:58:05;17.50;94.00
5134;DHT22;2585;48.696;10.066;2022-08-19T16:01:04;17.50;94.00
5134;DHT22;2585;48.696;10.066;2022-08-19T16:03:54;17.50;94.00
5134;DHT22;2585;48.696;10.066;2022-08-19T16:06:47;17.50;94.00
5134;DHT22;2585;48.696;10.066;2022-08-19T16:09:15;17.40;94.00
5134;DHT22;2585;48.696;10.066;2022-08-19T16:11:43;17.50;94.00
5134;DHT22;2585;48.696;10.066;2022-08-19T16:14:14;17.40;94.00
5134;DHT22;2585;48.696;10.066;2022-08-19T16:16:41;17.50;94.00